sensor_id;sensor_type;location;lat;lon;timestamp;P1;durP1;ratioP1;P2;durP2;ratioP2
75537;SDS011;64121;48.666;8.114;2023-04-25T00:01:31;4.72;;;2.85;;
75537;SDS011;64121;48.666;8.114;2023-04-25T00:03:57;3.80;;;2.50;;
75537;SDS011;64121;48.666;8.114;2023-04-25T00:06:22;3.97;;;2.80;;
75537;SDS011;64121;48.666;8.114;2023-04-25T00:08:47;3.83;;;2.70;;
75537;SDS011;64121;48.666;8.114;2023-04-25T00:11:13;3.88;;;2.78;;
75537;SDS011;64121;48.666;8.114;2023-04-25T00:13:38;4.65;;;2.97;;
75537;SDS011;64121;48.666;8.114;2023-04-25T00:16:04;4.68;;;2.60;;
75537;SDS011;64121;48.666;8.114;2023-04-25T00:18:31;4.45;;;2.58;;
75537;SDS011;64121;48.666;8.114;2023-04-25T00:20:56;4.10;;;2.70;;
75537;SDS011;64121;48.666;8.114;2023-04-25T00:23:21;3.95;;;2.22;;
75537;SDS011;64121;48.666;8.114;2023-04-25T00:25:47;4.25;;;2.72;;
75537;SDS011;64121;48.666;8.114;2023-04-25T00:28:14;3.85;;;2.63;;
75537;SDS011;64121;48.666;8.114;2023-04-25T00:30:40;4.00;;;2.75;;
75537;SDS011;64121;48.666;8.114;2023-04-25T00:33:06;3.90;;;2.65;;
75537;SDS011;64121;48.666;8.114;2023-04-25T00:35:32;4.40;;;2.22;;
75537;SDS011;64121;48.666;8.114;2023-04-25T00:37:58;3.90;;;2.80;;
75537;SDS011;64121;48.666;8.114;2023-04-25T00:40:23;5.57;;;2.50;;
75537;SDS011;64121;48.666;8.114;2023-04-25T00:42:49;4.57;;;2.72;;
75537;SDS011;64121;48.666;8.114;2023-04-25T00:45:16;2.92;;;2.33;;
75537;SDS011;64121;48.666;8.114;2023-04-25T00:47:42;3.38;;;2.38;;
75537;SDS011;64121;48.666;8.114;2023-04-25T00:50:08;3.35;;;2.03;;
75537;SDS011;64121;48.666;8.114;2023-04-25T00:52:35;4.60;;;2.25;;
75537;SDS011;64121;48.666;8.114;2023-04-25T00:55:02;4.43;;;2.45;;
75537;SDS011;64121;48.666;8.114;2023-04-25T00:57:28;3.72;;;2.40;;
75537;SDS011;64121;48.666;8.114;2023-04-25T00:59:53;2.83;;;1.95;;
75537;SDS011;64121;48.666;8.114;2023-04-25T01:02:19;3.78;;;2.20;;
75537;SDS011;64121;48.666;8.114;2023-04-25T01:04:45;3.15;;;2.10;;
75537;SDS011;64121;48.666;8.114;2023-04-25T01:07:10;3.15;;;1.98;;
75537;SDS011;64121;48.666;8.114;2023-04-25T01:09:37;2.65;;;1.98;;
75537;SDS011;64121;48.666;8.114;2023-04-25T01:12:03;3.88;;;1.90;;
75537;SDS011;64121;48.666;8.114;2023-04-25T01:14:28;3.08;;;2.05;;
75537;SDS011;64121;48.666;8.114;2023-04-25T01:16:54;3.45;;;1.98;;
75537;SDS011;64121;48.666;8.114;2023-04-25T01:19:19;2.28;;;1.55;;
75537;SDS011;64121;48.666;8.114;2023-04-25T01:21:46;3.55;;;2.08;;
75537;SDS011;64121;48.666;8.114;2023-04-25T01:24:11;3.75;;;2.05;;
75537;SDS011;64121;48.666;8.114;2023-04-25T01:26:37;3.35;;;1.90;;
75537;SDS011;64121;48.666;8.114;2023-04-25T01:29:03;3.65;;;1.98;;
75537;SDS011;64121;48.666;8.114;2023-04-25T01:31:29;3.78;;;2.10;;
75537;SDS011;64121;48.666;8.114;2023-04-25T01:33:55;4.50;;;3.22;;
75537;SDS011;64121;48.666;8.114;2023-04-25T01:36:20;3.30;;;2.65;;
75537;SDS011;64121;48.666;8.114;2023-04-25T01:38:48;4.35;;;2.30;;
75537;SDS011;64121;48.666;8.114;2023-04-25T01:41:13;4.53;;;2.50;;
75537;SDS011;64121;48.666;8.114;2023-04-25T01:43:39;4.75;;;2.10;;
75537;SDS011;64121;48.666;8.114;2023-04-25T01:46:05;3.20;;;2.33;;
75537;SDS011;64121;48.666;8.114;2023-04-25T01:48:30;5.72;;;2.50;;
75537;SDS011;64121;48.666;8.114;2023-04-25T01:50:56;4.50;;;2.78;;
75537;SDS011;64121;48.666;8.114;2023-04-25T01:53:21;5.18;;;2.80;;
75537;SDS011;64121;48.666;8.114;2023-04-25T01:55:48;5.03;;;3.30;;
75537;SDS011;64121;48.666;8.114;2023-04-25T01:58:13;3.70;;;2.75;;
75537;SDS011;64121;48.666;8.114;2023-04-25T02:00:39;5.93;;;3.13;;
75537;SDS011;64121;48.666;8.114;2023-04-25T02:03:04;3.83;;;3.00;;
75537;SDS011;64121;48.666;8.114;2023-04-25T02:05:33;4.28;;;2.70;;
75537;SDS011;64121;48.666;8.114;2023-04-25T02:07:59;4.63;;;2.65;;
75537;SDS011;64121;48.666;8.114;2023-04-25T02:10:24;4.75;;;3.33;;
75537;SDS011;64121;48.666;8.114;2023-04-25T02:12:51;4.50;;;2.90;;
75537;SDS011;64121;48.666;8.114;2023-04-25T02:15:16;3.92;;;2.63;;
75537;SDS011;64121;48.666;8.114;2023-04-25T02:17:41;3.00;;;2.08;;
75537;SDS011;64121;48.666;8.114;2023-04-25T02:20:07;5.40;;;2.78;;
75537;SDS011;64121;48.666;8.114;2023-04-25T02:22:33;3.95;;;2.45;;
75537;SDS011;64121;48.666;8.114;2023-04-25T02:24:58;3.55;;;2.47;;
75537;SDS011;64121;48.666;8.114;2023-04-25T02:27:24;3.70;;;2.50;;
75537;SDS011;64121;48.666;8.114;2023-04-25T02:29:50;4.13;;;2.58;;
75537;SDS011;64121;48.666;8.114;2023-04-25T02:32:16;3.63;;;2.50;;
75537;SDS011;64121;48.666;8.114;2023-04-25T02:34:41;4.95;;;2.60;;
75537;SDS011;64121;48.666;8.114;2023-04-25T02:37:06;4.28;;;2.35;;
75537;SDS011;64121;48.666;8.114;2023-04-25T02:39:32;3.75;;;2.65;;
75537;SDS011;64121;48.666;8.114;2023-04-25T02:41:57;3.90;;;2.65;;
75537;SDS011;64121;48.666;8.114;2023-04-25T02:44:22;5.93;;;2.67;;
75537;SDS011;64121;48.666;8.114;2023-04-25T02:46:49;3.75;;;2.65;;
75537;SDS011;64121;48.666;8.114;2023-04-25T02:49:14;4.75;;;2.88;;
75537;SDS011;64121;48.666;8.114;2023-04-25T02:51:40;3.95;;;2.40;;
75537;SDS011;64121;48.666;8.114;2023-04-25T02:54:05;4.60;;;2.38;;
75537;SDS011;64121;48.666;8.114;2023-04-25T02:56:30;4.22;;;3.05;;
75537;SDS011;64121;48.666;8.114;2023-04-25T02:58:56;3.88;;;2.78;;
75537;SDS011;64121;48.666;8.114;2023-04-25T03:01:21;4.63;;;3.00;;
75537;SDS011;64121;48.666;8.114;2023-04-25T03:03:48;4.20;;;3.03;;
75537;SDS011;64121;48.666;8.114;2023-04-25T03:06:13;4.65;;;3.13;;
75537;SDS011;64121;48.666;8.114;2023-04-25T03:08:38;3.80;;;2.70;;
75537;SDS011;64121;48.666;8.114;2023-04-25T03:11:04;4.22;;;3.08;;
75537;SDS011;64121;48.666;8.114;2023-04-25T03:13:29;4.55;;;2.95;;
75537;SDS011;64121;48.666;8.114;2023-04-25T03:15:54;4.90;;;2.97;;
75537;SDS011;64121;48.666;8.114;2023-04-25T03:18:20;6.35;;;3.15;;
75537;SDS011;64121;48.666;8.114;2023-04-25T03:20:46;4.72;;;2.85;;
75537;SDS011;64121;48.666;8.114;2023-04-25T03:23:12;3.88;;;2.92;;
75537;SDS011;64121;48.666;8.114;2023-04-25T03:25:37;4.88;;;3.20;;
75537;SDS011;64121;48.666;8.114;2023-04-25T03:28:02;4.90;;;3.10;;
75537;SDS011;64121;48.666;8.114;2023-04-25T03:30:28;5.80;;;3.15;;
75537;SDS011;64121;48.666;8.114;2023-04-25T03:32:53;5.28;;;3.45;;
75537;SDS011;64121;48.666;8.114;2023-04-25T03:35:18;4.97;;;3.40;;
75537;SDS011;64121;48.666;8.114;2023-04-25T03:37:45;5.05;;;3.20;;
75537;SDS011;64121;48.666;8.114;2023-04-25T03:40:10;4.20;;;3.20;;
75537;SDS011;64121;48.666;8.114;2023-04-25T03:42:36;6.65;;;3.45;;
75537;SDS011;64121;48.666;8.114;2023-04-25T03:45:01;5.20;;;3.45;;
75537;SDS011;64121;48.666;8.114;2023-04-25T03:47:27;5.63;;;3.58;;
75537;SDS011;64121;48.666;8.114;2023-04-25T03:49:52;4.15;;;3.10;;
75537;SDS011;64121;48.666;8.114;2023-04-25T03:52:18;5.10;;;2.95;;
75537;SDS011;64121;48.666;8.114;2023-04-25T03:54:44;5.95;;;3.13;;
75537;SDS011;64121;48.666;8.114;2023-04-25T03:57:10;4.93;;;3.38;;
75537;SDS011;64121;48.666;8.114;2023-04-25T03:59:35;5.75;;;3.88;;
75537;SDS011;64121;48.666;8.114;2023-04-25T04:02:00;6.03;;;3.80;;
75537;SDS011;64121;48.666;8.114;2023-04-25T04:04:26;4.65;;;3.80;;
75537;SDS011;64121;48.666;8.114;2023-04-25T04:06:51;4.93;;;3.83;;
75537;SDS011;64121;48.666;8.114;2023-04-25T04:09:17;4.70;;;3.50;;
75537;SDS011;64121;48.666;8.114;2023-04-25T04:11:43;3.90;;;2.58;;
75537;SDS011;64121;48.666;8.114;2023-04-25T04:14:08;5.25;;;3.03;;
75537;SDS011;64121;48.666;8.114;2023-04-25T04:16:34;3.33;;;2.50;;
75537;SDS011;64121;48.666;8.114;2023-04-25T04:18:59;4.28;;;2.95;;
75537;SDS011;64121;48.666;8.114;2023-04-25T04:21:24;3.85;;;2.90;;
75537;SDS011;64121;48.666;8.114;2023-04-25T04:23:50;4.30;;;2.70;;
75537;SDS011;64121;48.666;8.114;2023-04-25T04:26:15;4.30;;;2.85;;
75537;SDS011;64121;48.666;8.114;2023-04-25T04:28:42;4.63;;;3.00;;
75537;SDS011;64121;48.666;8.114;2023-04-25T04:31:08;4.05;;;2.67;;
75537;SDS011;64121;48.666;8.114;2023-04-25T04:33:33;3.72;;;2.47;;
75537;SDS011;64121;48.666;8.114;2023-04-25T04:35:59;3.55;;;2.97;;
75537;SDS011;64121;48.666;8.114;2023-04-25T04:38:24;4.10;;;2.50;;
75537;SDS011;64121;48.666;8.114;2023-04-25T04:40:49;4.72;;;2.92;;
75537;SDS011;64121;48.666;8.114;2023-04-25T04:43:14;3.63;;;2.47;;
75537;SDS011;64121;48.666;8.114;2023-04-25T04:45:41;3.97;;;2.88;;
75537;SDS011;64121;48.666;8.114;2023-04-25T04:48:06;3.08;;;2.20;;
75537;SDS011;64121;48.666;8.114;2023-04-25T04:50:32;4.15;;;2.72;;
75537;SDS011;64121;48.666;8.114;2023-04-25T04:52:57;5.25;;;3.05;;
75537;SDS011;64121;48.666;8.114;2023-04-25T04:55:23;4.18;;;3.22;;
75537;SDS011;64121;48.666;8.114;2023-04-25T04:57:48;4.70;;;3.15;;
75537;SDS011;64121;48.666;8.114;2023-04-25T05:00:14;5.15;;;3.63;;
75537;SDS011;64121;48.666;8.114;2023-04-25T05:02:41;4.20;;;3.15;;
75537;SDS011;64121;48.666;8.114;2023-04-25T05:05:07;4.13;;;2.97;;
75537;SDS011;64121;48.666;8.114;2023-04-25T05:07:32;4.22;;;3.30;;
75537;SDS011;64121;48.666;8.114;2023-04-25T05:09:58;5.72;;;3.60;;
75537;SDS011;64121;48.666;8.114;2023-04-25T05:12:23;4.80;;;2.90;;
75537;SDS011;64121;48.666;8.114;2023-04-25T05:14:48;4.78;;;3.05;;
75537;SDS011;64121;48.666;8.114;2023-04-25T05:17:14;5.95;;;3.13;;
75537;SDS011;64121;48.666;8.114;2023-04-25T05:19:40;5.63;;;3.20;;
75537;SDS011;64121;48.666;8.114;2023-04-25T05:22:06;4.25;;;3.50;;
75537;SDS011;64121;48.666;8.114;2023-04-25T05:24:31;5.40;;;3.60;;
75537;SDS011;64121;48.666;8.114;2023-04-25T05:26:56;5.70;;;3.70;;
75537;SDS011;64121;48.666;8.114;2023-04-25T05:29:22;6.45;;;3.30;;
75537;SDS011;64121;48.666;8.114;2023-04-25T05:31:47;6.00;;;4.00;;
75537;SDS011;64121;48.666;8.114;2023-04-25T05:34:12;19.33;;;4.53;;
75537;SDS011;64121;48.666;8.114;2023-04-25T05:36:39;5.10;;;3.30;;
75537;SDS011;64121;48.666;8.114;2023-04-25T05:39:04;4.25;;;3.42;;
75537;SDS011;64121;48.666;8.114;2023-04-25T05:41:30;4.05;;;3.28;;
75537;SDS011;64121;48.666;8.114;2023-04-25T05:43:55;4.57;;;3.63;;
75537;SDS011;64121;48.666;8.114;2023-04-25T05:46:20;5.03;;;3.72;;
75537;SDS011;64121;48.666;8.114;2023-04-25T05:48:46;7.53;;;3.80;;
75537;SDS011;64121;48.666;8.114;2023-04-25T05:51:11;7.15;;;4.53;;
75537;SDS011;64121;48.666;8.114;2023-04-25T05:53:38;7.03;;;5.50;;
75537;SDS011;64121;48.666;8.114;2023-04-25T05:56:03;8.70;;;5.90;;
75537;SDS011;64121;48.666;8.114;2023-04-25T05:58:29;5.97;;;4.50;;
75537;SDS011;64121;48.666;8.114;2023-04-25T06:00:55;6.88;;;5.03;;
75537;SDS011;64121;48.666;8.114;2023-04-25T06:03:20;7.22;;;4.78;;
75537;SDS011;64121;48.666;8.114;2023-04-25T06:05:45;7.60;;;5.70;;
75537;SDS011;64121;48.666;8.114;2023-04-25T06:08:11;7.20;;;4.60;;
75537;SDS011;64121;48.666;8.114;2023-04-25T06:10:37;6.97;;;4.40;;
75537;SDS011;64121;48.666;8.114;2023-04-25T06:13:03;5.93;;;4.18;;
75537;SDS011;64121;48.666;8.114;2023-04-25T06:15:29;6.72;;;4.03;;
75537;SDS011;64121;48.666;8.114;2023-04-25T06:17:54;7.18;;;4.45;;
75537;SDS011;64121;48.666;8.114;2023-04-25T06:20:20;7.55;;;4.70;;
75537;SDS011;64121;48.666;8.114;2023-04-25T06:22:45;6.25;;;4.97;;
75537;SDS011;64121;48.666;8.114;2023-04-25T06:25:11;8.13;;;5.43;;
75537;SDS011;64121;48.666;8.114;2023-04-25T06:27:37;6.78;;;5.38;;
75537;SDS011;64121;48.666;8.114;2023-04-25T06:30:03;8.43;;;5.00;;
75537;SDS011;64121;48.666;8.114;2023-04-25T06:32:29;5.93;;;4.63;;
75537;SDS011;64121;48.666;8.114;2023-04-25T06:34:54;7.88;;;4.68;;
75537;SDS011;64121;48.666;8.114;2023-04-25T06:37:20;7.43;;;5.38;;
75537;SDS011;64121;48.666;8.114;2023-04-25T06:39:45;6.75;;;5.20;;
75537;SDS011;64121;48.666;8.114;2023-04-25T06:42:10;9.35;;;5.25;;
75537;SDS011;64121;48.666;8.114;2023-04-25T06:44:37;8.18;;;5.15;;
75537;SDS011;64121;48.666;8.114;2023-04-25T06:47:02;7.03;;;5.50;;
75537;SDS011;64121;48.666;8.114;2023-04-25T06:49:27;7.35;;;5.38;;
75537;SDS011;64121;48.666;8.114;2023-04-25T06:51:53;7.63;;;5.05;;
75537;SDS011;64121;48.666;8.114;2023-04-25T06:54:18;7.38;;;5.75;;
75537;SDS011;64121;48.666;8.114;2023-04-25T06:56:43;8.80;;;5.22;;
75537;SDS011;64121;48.666;8.114;2023-04-25T06:59:09;7.85;;;4.97;;
75537;SDS011;64121;48.666;8.114;2023-04-25T07:01:35;7.82;;;4.63;;
75537;SDS011;64121;48.666;8.114;2023-04-25T07:04:01;7.60;;;4.63;;
75537;SDS011;64121;48.666;8.114;2023-04-25T07:06:26;7.45;;;4.57;;
75537;SDS011;64121;48.666;8.114;2023-04-25T07:08:51;8.77;;;4.82;;
75537;SDS011;64121;48.666;8.114;2023-04-25T07:11:17;7.28;;;4.95;;
75537;SDS011;64121;48.666;8.114;2023-04-25T07:13:42;7.63;;;4.68;;
75537;SDS011;64121;48.666;8.114;2023-04-25T07:16:07;6.03;;;3.92;;
75537;SDS011;64121;48.666;8.114;2023-04-25T07:18:34;6.95;;;4.40;;
75537;SDS011;64121;48.666;8.114;2023-04-25T07:20:59;6.43;;;4.18;;
75537;SDS011;64121;48.666;8.114;2023-04-25T07:23:25;6.00;;;4.13;;
75537;SDS011;64121;48.666;8.114;2023-04-25T07:25:50;7.72;;;4.35;;
75537;SDS011;64121;48.666;8.114;2023-04-25T07:28:15;5.43;;;4.00;;
75537;SDS011;64121;48.666;8.114;2023-04-25T07:30:41;6.22;;;4.55;;
75537;SDS011;64121;48.666;8.114;2023-04-25T07:33:06;7.00;;;4.38;;
75537;SDS011;64121;48.666;8.114;2023-04-25T07:35:33;6.93;;;5.07;;
75537;SDS011;64121;48.666;8.114;2023-04-25T07:37:58;6.53;;;4.38;;
75537;SDS011;64121;48.666;8.114;2023-04-25T07:40:23;7.50;;;5.00;;
75537;SDS011;64121;48.666;8.114;2023-04-25T07:42:49;7.15;;;4.43;;
75537;SDS011;64121;48.666;8.114;2023-04-25T07:45:14;5.53;;;3.47;;
75537;SDS011;64121;48.666;8.114;2023-04-25T07:47:39;4.40;;;2.75;;
75537;SDS011;64121;48.666;8.114;2023-04-25T07:50:05;3.20;;;2.28;;
75537;SDS011;64121;48.666;8.114;2023-04-25T07:52:32;4.50;;;2.45;;
75537;SDS011;64121;48.666;8.114;2023-04-25T07:54:58;2.90;;;2.13;;
75537;SDS011;64121;48.666;8.114;2023-04-25T07:57:23;3.00;;;1.90;;
75537;SDS011;64121;48.666;8.114;2023-04-25T07:59:48;4.13;;;2.10;;
75537;SDS011;64121;48.666;8.114;2023-04-25T08:02:14;3.20;;;2.10;;
75537;SDS011;64121;48.666;8.114;2023-04-25T08:04:39;3.10;;;2.00;;
75537;SDS011;64121;48.666;8.114;2023-04-25T08:07:04;3.35;;;1.77;;
75537;SDS011;64121;48.666;8.114;2023-04-25T08:09:31;3.25;;;1.70;;
75537;SDS011;64121;48.666;8.114;2023-04-25T08:11:56;3.13;;;1.63;;
75537;SDS011;64121;48.666;8.114;2023-04-25T08:14:22;2.50;;;1.42;;
75537;SDS011;64121;48.666;8.114;2023-04-25T08:16:47;2.28;;;1.20;;
75537;SDS011;64121;48.666;8.114;2023-04-25T08:19:12;2.70;;;1.40;;
75537;SDS011;64121;48.666;8.114;2023-04-25T08:21:38;2.28;;;1.20;;
75537;SDS011;64121;48.666;8.114;2023-04-25T08:24:03;3.63;;;1.50;;
75537;SDS011;64121;48.666;8.114;2023-04-25T08:26:30;4.53;;;1.40;;
75537;SDS011;64121;48.666;8.114;2023-04-25T08:28:55;2.50;;;1.63;;
75537;SDS011;64121;48.666;8.114;2023-04-25T08:31:20;2.88;;;1.45;;
75537;SDS011;64121;48.666;8.114;2023-04-25T08:33:46;5.53;;;1.60;;
75537;SDS011;64121;48.666;8.114;2023-04-25T08:36:11;2.03;;;1.00;;
75537;SDS011;64121;48.666;8.114;2023-04-25T08:38:37;2.00;;;1.35;;
75537;SDS011;64121;48.666;8.114;2023-04-25T08:41:02;1.50;;;1.00;;
75537;SDS011;64121;48.666;8.114;2023-04-25T08:43:29;2.33;;;1.40;;
75537;SDS011;64121;48.666;8.114;2023-04-25T08:45:55;4.30;;;1.10;;
75537;SDS011;64121;48.666;8.114;2023-04-25T08:48:24;2.05;;;1.15;;
75537;SDS011;64121;48.666;8.114;2023-04-25T08:50:52;3.15;;;1.10;;
75537;SDS011;64121;48.666;8.114;2023-04-25T08:53:21;2.22;;;1.20;;
75537;SDS011;64121;48.666;8.114;2023-04-25T08:55:50;1.52;;;0.90;;
75537;SDS011;64121;48.666;8.114;2023-04-25T08:58:16;2.30;;;1.40;;
75537;SDS011;64121;48.666;8.114;2023-04-25T09:00:44;2.00;;;1.05;;
75537;SDS011;64121;48.666;8.114;2023-04-25T09:03:10;1.42;;;0.82;;
75537;SDS011;64121;48.666;8.114;2023-04-25T09:05:36;1.30;;;0.70;;
75537;SDS011;64121;48.666;8.114;2023-04-25T09:08:02;1.65;;;0.90;;
75537;SDS011;64121;48.666;8.114;2023-04-25T09:10:27;1.35;;;0.98;;
75537;SDS011;64121;48.666;8.114;2023-04-25T09:13:02;1.02;;;0.52;;
75537;SDS011;64121;48.666;8.114;2023-04-25T09:15:28;1.33;;;0.80;;
75537;SDS011;64121;48.666;8.114;2023-04-25T09:17:56;1.23;;;0.70;;
75537;SDS011;64121;48.666;8.114;2023-04-25T09:20:22;1.25;;;0.55;;
75537;SDS011;64121;48.666;8.114;2023-04-25T09:22:47;1.15;;;0.57;;
75537;SDS011;64121;48.666;8.114;2023-04-25T09:25:13;1.20;;;0.60;;
75537;SDS011;64121;48.666;8.114;2023-04-25T09:27:48;1.75;;;0.70;;
75537;SDS011;64121;48.666;8.114;2023-04-25T09:30:15;1.17;;;0.70;;
75537;SDS011;64121;48.666;8.114;2023-04-25T09:32:41;1.05;;;0.70;;
75537;SDS011;64121;48.666;8.114;2023-04-25T09:35:09;1.35;;;0.60;;
75537;SDS011;64121;48.666;8.114;2023-04-25T09:37:34;3.15;;;0.80;;
75537;SDS011;64121;48.666;8.114;2023-04-25T09:40:00;1.60;;;0.60;;
75537;SDS011;64121;48.666;8.114;2023-04-25T09:42:29;0.85;;;0.50;;
75537;SDS011;64121;48.666;8.114;2023-04-25T09:44:55;1.65;;;0.80;;
75537;SDS011;64121;48.666;8.114;2023-04-25T09:47:22;1.27;;;0.65;;
75537;SDS011;64121;48.666;8.114;2023-04-25T09:49:48;1.75;;;0.60;;
75537;SDS011;64121;48.666;8.114;2023-04-25T09:52:16;1.80;;;0.82;;
75537;SDS011;64121;48.666;8.114;2023-04-25T09:54:42;1.90;;;0.70;;
75537;SDS011;64121;48.666;8.114;2023-04-25T09:57:10;1.42;;;0.80;;
75537;SDS011;64121;48.666;8.114;2023-04-25T09:59:37;0.77;;;0.50;;
75537;SDS011;64121;48.666;8.114;2023-04-25T10:02:03;1.48;;;0.57;;
75537;SDS011;64121;48.666;8.114;2023-04-25T10:04:31;0.90;;;0.60;;
75537;SDS011;64121;48.666;8.114;2023-04-25T10:06:59;1.00;;;0.50;;
75537;SDS011;64121;48.666;8.114;2023-04-25T10:09:27;1.77;;;0.60;;
75537;SDS011;64121;48.666;8.114;2023-04-25T10:11:56;0.80;;;0.43;;
75537;SDS011;64121;48.666;8.114;2023-04-25T10:14:23;1.27;;;0.63;;
75537;SDS011;64121;48.666;8.114;2023-04-25T10:16:49;0.93;;;0.60;;
75537;SDS011;64121;48.666;8.114;2023-04-25T10:19:14;1.42;;;0.50;;
75537;SDS011;64121;48.666;8.114;2023-04-25T10:21:44;1.00;;;0.57;;
75537;SDS011;64121;48.666;8.114;2023-04-25T10:24:13;1.20;;;0.57;;
75537;SDS011;64121;48.666;8.114;2023-04-25T10:26:41;2.15;;;0.60;;
75537;SDS011;64121;48.666;8.114;2023-04-25T10:29:07;1.33;;;0.68;;
75537;SDS011;64121;48.666;8.114;2023-04-25T10:31:34;1.02;;;0.50;;
75537;SDS011;64121;48.666;8.114;2023-04-25T10:34:10;1.42;;;0.70;;
75537;SDS011;64121;48.666;8.114;2023-04-25T10:36:35;1.38;;;0.60;;
75537;SDS011;64121;48.666;8.114;2023-04-25T10:39:03;1.05;;;0.80;;
75537;SDS011;64121;48.666;8.114;2023-04-25T10:41:29;1.13;;;0.52;;
75537;SDS011;64121;48.666;8.114;2023-04-25T10:43:59;1.10;;;0.68;;
75537;SDS011;64121;48.666;8.114;2023-04-25T10:46:25;4.10;;;0.82;;
75537;SDS011;64121;48.666;8.114;2023-04-25T10:48:52;1.23;;;0.75;;
75537;SDS011;64121;48.666;8.114;2023-04-25T10:51:20;1.75;;;0.82;;
75537;SDS011;64121;48.666;8.114;2023-04-25T10:53:46;2.15;;;0.82;;
75537;SDS011;64121;48.666;8.114;2023-04-25T10:56:21;2.45;;;0.80;;
75537;SDS011;64121;48.666;8.114;2023-04-25T10:58:48;1.27;;;0.60;;
75537;SDS011;64121;48.666;8.114;2023-04-25T11:01:15;3.00;;;1.50;;
75537;SDS011;64121;48.666;8.114;2023-04-25T11:03:45;2.08;;;1.40;;
75537;SDS011;64121;48.666;8.114;2023-04-25T11:06:17;1.90;;;0.75;;
75537;SDS011;64121;48.666;8.114;2023-04-25T11:08:48;1.95;;;0.80;;
75537;SDS011;64121;48.666;8.114;2023-04-25T11:11:14;1.83;;;0.80;;
75537;SDS011;64121;48.666;8.114;2023-04-25T11:13:40;2.22;;;0.80;;
75537;SDS011;64121;48.666;8.114;2023-04-25T11:16:06;1.63;;;0.80;;
75537;SDS011;64121;48.666;8.114;2023-04-25T11:18:33;1.67;;;1.00;;
75537;SDS011;64121;48.666;8.114;2023-04-25T11:20:59;1.50;;;0.88;;
75537;SDS011;64121;48.666;8.114;2023-04-25T11:23:24;1.83;;;0.90;;
75537;SDS011;64121;48.666;8.114;2023-04-25T11:25:50;3.03;;;1.40;;
75537;SDS011;64121;48.666;8.114;2023-04-25T11:28:20;2.67;;;1.30;;
75537;SDS011;64121;48.666;8.114;2023-04-25T11:30:47;2.17;;;1.13;;
75537;SDS011;64121;48.666;8.114;2023-04-25T11:33:13;2.20;;;1.20;;
75537;SDS011;64121;48.666;8.114;2023-04-25T11:35:41;2.92;;;1.50;;
75537;SDS011;64121;48.666;8.114;2023-04-25T11:38:06;2.00;;;1.52;;
75537;SDS011;64121;48.666;8.114;2023-04-25T11:40:32;8.55;;;5.47;;
75537;SDS011;64121;48.666;8.114;2023-04-25T11:42:59;4.65;;;2.58;;
75537;SDS011;64121;48.666;8.114;2023-04-25T11:45:25;2.38;;;1.20;;
75537;SDS011;64121;48.666;8.114;2023-04-25T11:47:51;3.00;;;2.28;;
75537;SDS011;64121;48.666;8.114;2023-04-25T11:50:17;2.42;;;1.30;;
75537;SDS011;64121;48.666;8.114;2023-04-25T11:52:44;2.22;;;1.25;;
75537;SDS011;64121;48.666;8.114;2023-04-25T11:55:12;1.98;;;1.30;;
75537;SDS011;64121;48.666;8.114;2023-04-25T11:57:39;2.20;;;1.33;;
75537;SDS011;64121;48.666;8.114;2023-04-25T12:00:10;2.70;;;1.73;;
75537;SDS011;64121;48.666;8.114;2023-04-25T12:02:36;3.22;;;1.55;;
75537;SDS011;64121;48.666;8.114;2023-04-25T12:05:02;2.90;;;2.00;;
75537;SDS011;64121;48.666;8.114;2023-04-25T12:07:30;3.20;;;1.83;;
75537;SDS011;64121;48.666;8.114;2023-04-25T12:09:57;3.35;;;1.80;;
75537;SDS011;64121;48.666;8.114;2023-04-25T12:12:26;2.72;;;1.80;;
75537;SDS011;64121;48.666;8.114;2023-04-25T12:14:52;2.33;;;1.50;;
75537;SDS011;64121;48.666;8.114;2023-04-25T12:17:17;3.10;;;2.00;;
75537;SDS011;64121;48.666;8.114;2023-04-25T12:19:43;2.88;;;1.80;;
75537;SDS011;64121;48.666;8.114;2023-04-25T12:22:18;4.03;;;2.00;;
75537;SDS011;64121;48.666;8.114;2023-04-25T12:24:45;3.20;;;1.60;;
75537;SDS011;64121;48.666;8.114;2023-04-25T12:27:13;3.08;;;1.80;;
75537;SDS011;64121;48.666;8.114;2023-04-25T12:29:39;3.03;;;1.90;;
75537;SDS011;64121;48.666;8.114;2023-04-25T12:32:14;3.33;;;2.15;;
75537;SDS011;64121;48.666;8.114;2023-04-25T12:34:40;2.70;;;1.83;;
75537;SDS011;64121;48.666;8.114;2023-04-25T12:37:05;3.33;;;2.10;;
75537;SDS011;64121;48.666;8.114;2023-04-25T12:39:31;3.13;;;2.10;;
75537;SDS011;64121;48.666;8.114;2023-04-25T12:41:56;4.47;;;2.65;;
75537;SDS011;64121;48.666;8.114;2023-04-25T12:44:22;3.78;;;2.13;;
75537;SDS011;64121;48.666;8.114;2023-04-25T12:46:48;3.00;;;1.23;;
75537;SDS011;64121;48.666;8.114;2023-04-25T12:49:13;2.47;;;1.40;;
75537;SDS011;64121;48.666;8.114;2023-04-25T12:51:39;2.47;;;1.30;;
75537;SDS011;64121;48.666;8.114;2023-04-25T12:54:05;3.53;;;2.25;;
75537;SDS011;64121;48.666;8.114;2023-04-25T12:56:31;3.03;;;1.30;;
75537;SDS011;64121;48.666;8.114;2023-04-25T12:58:56;3.38;;;1.55;;
75537;SDS011;64121;48.666;8.114;2023-04-25T13:01:23;2.80;;;1.50;;
75537;SDS011;64121;48.666;8.114;2023-04-25T13:03:49;1.67;;;1.00;;
75537;SDS011;64121;48.666;8.114;2023-04-25T13:06:15;3.00;;;1.33;;
75537;SDS011;64121;48.666;8.114;2023-04-25T13:08:41;1.88;;;0.95;;
75537;SDS011;64121;48.666;8.114;2023-04-25T13:11:06;2.15;;;1.10;;
75537;SDS011;64121;48.666;8.114;2023-04-25T13:13:32;2.20;;;1.30;;
75537;SDS011;64121;48.666;8.114;2023-04-25T13:15:57;1.83;;;0.90;;
75537;SDS011;64121;48.666;8.114;2023-04-25T13:18:24;2.20;;;1.00;;
75537;SDS011;64121;48.666;8.114;2023-04-25T13:20:49;1.92;;;0.82;;
75537;SDS011;64121;48.666;8.114;2023-04-25T13:23:15;2.10;;;1.33;;
75537;SDS011;64121;48.666;8.114;2023-04-25T13:25:40;1.83;;;1.00;;
75537;SDS011;64121;48.666;8.114;2023-04-25T13:28:05;2.30;;;1.42;;
75537;SDS011;64121;48.666;8.114;2023-04-25T13:30:31;2.75;;;1.35;;
75537;SDS011;64121;48.666;8.114;2023-04-25T13:32:56;1.77;;;1.17;;
75537;SDS011;64121;48.666;8.114;2023-04-25T13:35:22;1.23;;;0.80;;
75537;SDS011;64121;48.666;8.114;2023-04-25T13:37:48;2.33;;;1.20;;
75537;SDS011;64121;48.666;8.114;2023-04-25T13:40:13;1.88;;;1.00;;
75537;SDS011;64121;48.666;8.114;2023-04-25T13:42:39;1.95;;;1.02;;
75537;SDS011;64121;48.666;8.114;2023-04-25T13:45:04;1.73;;;0.90;;
75537;SDS011;64121;48.666;8.114;2023-04-25T13:47:30;1.77;;;1.17;;
75537;SDS011;64121;48.666;8.114;2023-04-25T13:49:56;1.90;;;1.10;;
75537;SDS011;64121;48.666;8.114;2023-04-25T13:52:22;2.22;;;1.38;;
75537;SDS011;64121;48.666;8.114;2023-04-25T13:54:48;1.45;;;0.90;;
75537;SDS011;64121;48.666;8.114;2023-04-25T13:57:13;2.78;;;0.77;;
75537;SDS011;64121;48.666;8.114;2023-04-25T13:59:39;1.23;;;0.80;;
75537;SDS011;64121;48.666;8.114;2023-04-25T14:02:04;1.70;;;1.10;;
75537;SDS011;64121;48.666;8.114;2023-04-25T14:04:29;1.48;;;0.90;;
75537;SDS011;64121;48.666;8.114;2023-04-25T14:06:55;1.30;;;0.82;;
75537;SDS011;64121;48.666;8.114;2023-04-25T14:09:22;1.55;;;0.93;;
75537;SDS011;64121;48.666;8.114;2023-04-25T14:11:47;1.75;;;1.00;;
75537;SDS011;64121;48.666;8.114;2023-04-25T14:14:12;2.75;;;1.02;;
75537;SDS011;64121;48.666;8.114;2023-04-25T14:16:37;2.83;;;1.00;;
75537;SDS011;64121;48.666;8.114;2023-04-25T14:19:03;2.28;;;0.90;;
75537;SDS011;64121;48.666;8.114;2023-04-25T14:21:28;2.03;;;0.80;;
75537;SDS011;64121;48.666;8.114;2023-04-25T14:23:54;1.80;;;0.90;;
75537;SDS011;64121;48.666;8.114;2023-04-25T14:26:20;1.88;;;1.10;;
75537;SDS011;64121;48.666;8.114;2023-04-25T14:28:46;4.32;;;1.25;;
75537;SDS011;64121;48.666;8.114;2023-04-25T14:31:11;3.80;;;1.52;;
75537;SDS011;64121;48.666;8.114;2023-04-25T14:33:36;2.22;;;1.23;;
75537;SDS011;64121;48.666;8.114;2023-04-25T14:36:02;1.83;;;1.10;;
75537;SDS011;64121;48.666;8.114;2023-04-25T14:38:28;3.13;;;1.30;;
75537;SDS011;64121;48.666;8.114;2023-04-25T14:40:53;1.70;;;1.10;;